createdAt,value
2023-12-09T00:01:46.901Z,101216.84
2023-12-09T00:06:49.987Z,101207.31
2023-12-09T00:11:52.424Z,101202.13
2023-12-09T00:16:54.472Z,101203.16
2023-12-09T00:21:56.548Z,101182.34
2023-12-09T00:26:58.641Z,101185.31
2023-12-09T00:32:00.705Z,101176.97
2023-12-09T00:37:02.824Z,101169.38
2023-12-09T00:42:05.327Z,101169.97
2023-12-09T00:47:07.341Z,101170.25
2023-12-09T00:52:09.509Z,101169.81
2023-12-09T00:57:11.663Z,101162.50
2023-12-09T01:02:14.000Z,101168.91
2023-12-09T01:07:16.091Z,101140.94
2023-12-09T01:12:18.396Z,101133.81
2023-12-09T01:17:20.744Z,101140.66
2023-12-09T01:22:22.809Z,101138.41
2023-12-09T01:27:25.080Z,101139.44
2023-12-09T01:32:27.521Z,101130.97
2023-12-09T01:37:29.704Z,101124.25
2023-12-09T01:42:31.982Z,101128.28
2023-12-09T01:47:34.259Z,101118.63
2023-12-09T01:52:36.340Z,101120.69
2023-12-09T01:57:38.502Z,101137.69
2023-12-09T02:02:40.687Z,101116.84
2023-12-09T02:07:42.909Z,101117.13
2023-12-09T02:12:53.973Z,101114.22
2023-12-09T02:18:05.838Z,101108.56
2023-12-09T02:23:27.886Z,101096.09
2023-12-09T02:28:30.041Z,101098.44
2023-12-09T02:33:32.368Z,101102.63
2023-12-09T02:38:34.489Z,101086.56
2023-12-09T02:43:37.734Z,101087.72
2023-12-09T02:48:39.947Z,101094.25
2023-12-09T02:53:42.138Z,101101.44
2023-12-09T02:58:44.301Z,101093.06
2023-12-09T03:03:46.636Z,101091.06
2023-12-09T03:08:48.748Z,101097.25
2023-12-09T03:13:50.814Z,101096.63
2023-12-09T03:18:53.111Z,101094.69
2023-12-09T03:23:55.279Z,101094.53
2023-12-09T03:28:57.411Z,101095.41
2023-12-09T03:33:59.759Z,101089.28
2023-12-09T03:39:01.939Z,101083.50
2023-12-09T03:44:04.345Z,101082.88
2023-12-09T03:49:06.435Z,101090.38
2023-12-09T03:54:08.611Z,101095.94
2023-12-09T03:59:10.724Z,101083.75
2023-12-09T04:04:12.888Z,101092.63
2023-12-09T04:09:15.070Z,101083.91
2023-12-09T04:14:17.129Z,101084.78
2023-12-09T04:19:19.474Z,101084.41
2023-12-09T04:24:21.779Z,101085.38
2023-12-09T04:29:24.113Z,101086.84
2023-12-09T04:34:26.162Z,101094.00
2023-12-09T04:39:28.401Z,101093.13
2023-12-09T04:44:30.533Z,101081.16
2023-12-09T04:49:32.652Z,101089.47
2023-12-09T04:54:34.921Z,101086.28
2023-12-09T04:59:37.179Z,101073.75
2023-12-09T05:04:39.323Z,101095.13
2023-12-09T05:09:41.584Z,101094.53
2023-12-09T05:14:43.770Z,101103.75
2023-12-09T05:19:45.852Z,101096.25
2023-12-09T05:24:47.832Z,101099.56
2023-12-09T05:29:50.337Z,101107.69
2023-12-09T05:34:52.350Z,101104.63
2023-12-09T05:39:54.314Z,101107.00
2023-12-09T05:44:56.530Z,101105.25
2023-12-09T05:49:58.782Z,101110.59
2023-12-09T05:55:00.900Z,101112.56
2023-12-09T06:00:02.998Z,101108.25
2023-12-09T06:05:06.988Z,101108.09
2023-12-09T06:10:09.678Z,101102.91
2023-12-09T06:15:11.730Z,101100.88
2023-12-09T06:20:14.913Z,101095.81
2023-12-09T06:25:17.254Z,101102.69
2023-12-09T06:30:19.455Z,101107.19
2023-12-09T06:35:21.527Z,101100.53
2023-12-09T06:40:24.159Z,101105.56
2023-12-09T06:45:26.246Z,101094.97
2023-12-09T06:50:28.519Z,101074.75
2023-12-09T06:55:30.665Z,101077.09
2023-12-09T07:00:32.915Z,101069.53
2023-12-09T07:05:35.146Z,101054.34
2023-12-09T07:10:37.281Z,101054.53
2023-12-09T07:15:39.450Z,101059.78
2023-12-09T07:20:41.558Z,101052.56
2023-12-09T07:25:43.784Z,101047.31
2023-12-09T07:30:45.797Z,101038.75
2023-12-09T07:35:47.949Z,101024.09
2023-12-09T07:40:50.048Z,101026.53
2023-12-09T07:45:52.110Z,101030.09
2023-12-09T07:50:54.289Z,101030.22
2023-12-09T07:55:56.572Z,101030.31
2023-12-09T08:01:00.694Z,101043.59
2023-12-09T08:06:03.088Z,101044.47
2023-12-09T08:11:06.297Z,101045.38
2023-12-09T08:16:09.254Z,101036.31
2023-12-09T08:21:11.458Z,101034.28
2023-12-09T08:26:18.088Z,101018.09
2023-12-09T08:31:20.322Z,101020.38
2023-12-09T08:36:22.577Z,101008.09
2023-12-09T08:41:26.245Z,101019.53
2023-12-09T08:46:29.586Z,101002.44
2023-12-09T08:51:32.049Z,101002.19
2023-12-09T08:56:34.431Z,101008.69
2023-12-09T09:01:37.222Z,100989.53
2023-12-09T09:06:39.711Z,100985.91
2023-12-09T09:11:42.062Z,100990.00
2023-12-09T09:16:44.154Z,100985.13
2023-12-09T09:21:47.908Z,101007.19
2023-12-09T09:26:50.177Z,100973.47
2023-12-09T09:31:53.081Z,100975.38
2023-12-09T09:36:55.215Z,100970.09
2023-12-09T09:42:03.320Z,100954.41
2023-12-09T09:47:05.472Z,100953.41
2023-12-09T09:52:07.510Z,100945.81
2023-12-09T09:57:09.976Z,100952.44
2023-12-09T10:02:12.299Z,100941.91
2023-12-09T10:07:14.689Z,100944.16
2023-12-09T10:12:16.957Z,100947.09
2023-12-09T10:17:19.997Z,100934.00
2023-12-09T10:22:22.389Z,100923.59
2023-12-09T10:27:25.593Z,100923.91
2023-12-09T10:32:28.535Z,100929.94
2023-12-09T10:37:31.024Z,100933.13
2023-12-09T10:42:33.323Z,100938.19
2023-12-09T10:47:35.852Z,100923.59
2023-12-09T10:52:39.345Z,100909.78
2023-12-09T10:57:42.085Z,100909.78
2023-12-09T11:02:45.543Z,100911.59
2023-12-09T11:07:48.322Z,100904.66
2023-12-09T11:12:50.512Z,100891.66
2023-12-09T11:17:55.171Z,100899.03
2023-12-09T11:22:58.220Z,100897.78
2023-12-09T11:28:00.364Z,100895.13
2023-12-09T11:33:03.383Z,100894.81
2023-12-09T11:38:07.182Z,100905.28
2023-12-09T11:43:09.685Z,100892.28
2023-12-09T11:48:12.239Z,100900.13
2023-12-09T11:53:14.386Z,100888.69
2023-12-09T11:58:16.671Z,100884.09
2023-12-09T12:03:18.793Z,100880.13
2023-12-09T12:08:21.472Z,100880.97
2023-12-09T12:13:23.668Z,100876.34
2023-12-09T12:18:26.007Z,100867.44
2023-12-09T12:23:32.795Z,100858.88
2023-12-09T12:28:35.354Z,100871.19
2023-12-09T12:33:37.798Z,100864.13
2023-12-09T12:38:40.141Z,100885.72
2023-12-09T12:43:42.626Z,100882.75
2023-12-09T12:48:45.025Z,100865.72
2023-12-09T12:53:47.247Z,100858.38
2023-12-09T12:58:49.356Z,100871.81
2023-12-09T13:03:51.561Z,100872.50
2023-12-09T13:08:53.530Z,100871.00
2023-12-09T13:13:55.786Z,100868.09
2023-12-09T13:18:58.733Z,100862.22
2023-12-09T13:24:01.516Z,100870.06
2023-12-09T13:29:03.786Z,100873.16
2023-12-09T13:34:06.477Z,100876.06
2023-12-09T13:39:08.679Z,100889.72
2023-12-09T13:44:10.682Z,100868.50
2023-12-09T13:49:13.987Z,100870.56
2023-12-09T13:54:16.802Z,100853.13
2023-12-09T13:59:18.860Z,100845.59
2023-12-09T14:04:20.972Z,100862.00
2023-12-09T14:09:23.223Z,100869.47
2023-12-09T14:14:25.356Z,100862.88
2023-12-09T14:19:27.447Z,100857.97
2023-12-09T14:24:29.758Z,100864.53
2023-12-09T14:29:31.738Z,100852.94
2023-12-09T14:34:34.172Z,100862.47
2023-12-09T14:39:36.583Z,100855.66
2023-12-09T14:44:38.787Z,100868.47
2023-12-09T14:49:41.256Z,100856.91
2023-12-09T14:54:43.568Z,100842.63
2023-12-09T14:59:45.745Z,100848.75
2023-12-09T15:04:48.188Z,100853.38
2023-12-09T15:09:50.565Z,100867.91
2023-12-09T15:14:52.788Z,100864.91
2023-12-09T15:19:55.129Z,100871.72
2023-12-09T15:24:57.177Z,100877.72
2023-12-09T15:29:59.220Z,100876.25
2023-12-09T15:35:01.434Z,100865.53
2023-12-09T15:40:06.609Z,100876.50
2023-12-09T15:45:09.462Z,100872.50
2023-12-09T15:50:11.864Z,100856.44
2023-12-09T15:55:14.032Z,100861.03
2023-12-09T16:00:17.603Z,100842.25
2023-12-09T16:05:20.042Z,100852.34
2023-12-09T16:10:22.338Z,100849.81
2023-12-09T16:15:24.518Z,100841.22
2023-12-09T16:20:26.710Z,100845.75
2023-12-09T16:25:28.770Z,100837.13
2023-12-09T16:30:31.012Z,100846.63
2023-12-09T16:35:33.380Z,100831.03
2023-12-09T16:40:35.384Z,100826.28
2023-12-09T16:45:37.436Z,100814.63
2023-12-09T16:50:39.596Z,100815.81
2023-12-09T16:55:42.913Z,100806.31
2023-12-09T17:00:45.087Z,100801.66
2023-12-09T17:05:47.461Z,100786.44
2023-12-09T17:10:49.561Z,100802.34
2023-12-09T17:15:51.733Z,100792.28
2023-12-09T17:20:53.901Z,100786.00
2023-12-09T17:25:56.085Z,100780.22
2023-12-09T17:30:58.228Z,100789.94
2023-12-09T17:36:00.508Z,100775.59
2023-12-09T17:41:02.639Z,100769.03
2023-12-09T17:46:04.941Z,100774.06
2023-12-09T17:51:07.086Z,100767.78
2023-12-09T17:56:09.742Z,100767.03
2023-12-09T18:01:12.359Z,100791.16
2023-12-09T18:06:15.226Z,100780.44
2023-12-09T18:11:17.381Z,100766.03
2023-12-09T18:16:19.446Z,100782.03
2023-12-09T18:21:21.667Z,100772.94
2023-12-09T18:26:23.715Z,100777.16
2023-12-09T18:31:25.927Z,100763.44
2023-12-09T18:36:28.497Z,100747.06
2023-12-09T18:41:30.811Z,100744.53
2023-12-09T18:46:33.085Z,100738.47
2023-12-09T18:51:35.493Z,100755.31
2023-12-09T18:56:37.768Z,100752.50
2023-12-09T19:01:40.110Z,100752.28
2023-12-09T19:06:53.498Z,100746.00
2023-12-09T19:11:59.024Z,100745.94
2023-12-09T19:17:01.288Z,100744.94
2023-12-09T19:22:03.397Z,100737.81
2023-12-09T19:27:05.842Z,100736.09
2023-12-09T19:32:08.182Z,100732.25
2023-12-09T19:37:10.198Z,100738.88
2023-12-09T19:42:12.352Z,100746.63
2023-12-09T19:47:14.542Z,100744.53
2023-12-09T19:52:16.723Z,100738.19
2023-12-09T19:57:19.202Z,100742.34
2023-12-09T20:02:21.541Z,100728.78
2023-12-09T20:07:23.773Z,100728.00
2023-12-09T20:12:26.350Z,100715.72
2023-12-09T20:17:28.783Z,100721.28
2023-12-09T20:22:31.416Z,100728.88
2023-12-09T20:27:33.991Z,100729.88
2023-12-09T20:32:36.398Z,100728.16
2023-12-09T20:37:38.626Z,100718.53
2023-12-09T20:42:40.960Z,100710.69
2023-12-09T20:47:43.081Z,100711.56
2023-12-09T20:52:45.342Z,100709.19
2023-12-09T20:57:47.525Z,100701.09
2023-12-09T21:02:49.734Z,100698.34
2023-12-09T21:07:51.959Z,100688.19
2023-12-09T21:12:54.191Z,100685.19
2023-12-09T21:17:56.605Z,100683.53
2023-12-09T21:22:58.793Z,100677.84
2023-12-09T21:28:00.851Z,100675.81
2023-12-09T21:33:03.045Z,100683.53
2023-12-09T21:38:05.224Z,100671.16
2023-12-09T21:43:07.697Z,100665.53
2023-12-09T21:48:10.499Z,100660.09
2023-12-09T21:53:12.889Z,100661.88
2023-12-09T21:58:15.047Z,100653.28
2023-12-09T22:03:17.268Z,100658.59
2023-12-09T22:08:19.371Z,100645.31
2023-12-09T22:13:21.513Z,100642.91
2023-12-09T22:18:23.790Z,100635.03
2023-12-09T22:23:25.975Z,100634.66
2023-12-09T22:28:30.902Z,100635.28
2023-12-09T22:33:33.341Z,100621.34
2023-12-09T22:38:35.493Z,100617.03
2023-12-09T22:43:37.752Z,100615.28
2023-12-09T22:48:40.033Z,100615.38
2023-12-09T22:53:42.392Z,100614.84
2023-12-09T22:58:44.579Z,100604.38
2023-12-09T23:03:46.743Z,100605.47
2023-12-09T23:08:48.985Z,100605.63
2023-12-09T23:13:51.199Z,100616.13
2023-12-09T23:18:53.547Z,100599.28
2023-12-09T23:23:55.799Z,100586.88
2023-12-09T23:28:57.952Z,100592.72
2023-12-09T23:34:00.486Z,100606.88
2023-12-09T23:39:02.812Z,100609.41
2023-12-09T23:44:05.241Z,100611.81
2023-12-09T23:49:07.611Z,100604.59
2023-12-09T23:54:09.891Z,100606.84
2023-12-09T23:59:11.942Z,100589.66
